createdAt,value
2023-01-08T00:00:08.994Z,99163.31
2023-01-08T00:00:57.115Z,99185.19
2023-01-08T00:01:38.764Z,99183.78
2023-01-08T00:02:20.421Z,99188.22
2023-01-08T00:03:02.307Z,99167.56
2023-01-08T00:03:44.430Z,99163.94
2023-01-08T00:04:26.753Z,99183.13
2023-01-08T00:05:11.415Z,99181.88
2023-01-08T00:05:53.187Z,99171.84
2023-01-08T00:06:35.659Z,99167.22
2023-01-08T00:07:17.431Z,99151.50
2023-01-08T00:07:59.107Z,99170.19
2023-01-08T00:08:41.668Z,99142.25
2023-01-08T00:09:23.502Z,99156.47
2023-01-08T00:10:05.732Z,99127.81
2023-01-08T00:10:54.276Z,99157.44
2023-01-08T00:11:36.064Z,99164.69
2023-01-08T00:12:17.868Z,99135.81
2023-01-08T00:12:59.517Z,99122.56
2023-01-08T00:13:41.499Z,99160.28
2023-01-08T00:14:23.180Z,99163.91
2023-01-08T00:15:05.633Z,99143.59
2023-01-08T00:15:47.577Z,99147.97
2023-01-08T00:16:55.105Z,99140.69
2023-01-08T00:17:36.827Z,99136.25
2023-01-08T00:18:18.843Z,99137.56
2023-01-08T00:19:00.715Z,99142.31
2023-01-08T00:19:43.063Z,99136.94
2023-01-08T00:20:25.660Z,99151.88
2023-01-08T00:21:07.409Z,99127.81
2023-01-08T00:21:49.043Z,99146.78
2023-01-08T00:22:31.170Z,99082.53
2023-01-08T00:23:14.238Z,99140.41
2023-01-08T00:23:56.038Z,99137.28
2023-01-08T00:24:37.794Z,99128.09
2023-01-08T00:25:20.478Z,99148.28
2023-01-08T00:26:03.653Z,99122.53
2023-01-08T00:26:45.295Z,99139.41
2023-01-08T00:27:27.343Z,99146.28
2023-01-08T00:28:09.505Z,99117.72
2023-01-08T00:28:51.252Z,99144.97
2023-01-08T00:29:32.904Z,99136.06
2023-01-08T00:30:14.615Z,99134.09
2023-01-08T00:30:56.386Z,99131.28
2023-01-08T00:31:38.140Z,99125.03
2023-01-08T00:32:19.761Z,99121.09
2023-01-08T00:33:01.521Z,99117.47
2023-01-08T00:33:43.318Z,99118.41
2023-01-08T00:34:25.008Z,99096.75
2023-01-08T00:35:07.103Z,99089.75
2023-01-08T00:35:48.858Z,99119.22
2023-01-08T00:36:30.633Z,99118.06
2023-01-08T00:37:12.398Z,99096.41
2023-01-08T00:37:54.098Z,99130.06
2023-01-08T00:38:35.973Z,99123.16
2023-01-08T00:39:17.635Z,99119.69
2023-01-08T00:39:59.233Z,99117.59
2023-01-08T00:40:41.238Z,99110.22
2023-01-08T00:41:22.976Z,99119.22
2023-01-08T00:42:04.966Z,99089.56
2023-01-08T00:42:47.442Z,99103.34
2023-01-08T00:43:29.161Z,99093.84
2023-01-08T00:44:10.934Z,99102.91
2023-01-08T00:44:52.636Z,99088.44
2023-01-08T00:45:34.616Z,99063.56
2023-01-08T00:46:16.624Z,99069.78
2023-01-08T00:46:58.405Z,99093.22
2023-01-08T00:47:40.368Z,99084.88
2023-01-08T00:48:23.298Z,99096.69
2023-01-08T00:49:05.624Z,99095.84
2023-01-08T00:50:12.665Z,99091.59
2023-01-08T00:50:55.094Z,99098.84
2023-01-08T00:51:36.842Z,99092.94
2023-01-08T00:52:18.529Z,99093.94
2023-01-08T00:53:00.836Z,99089.34
2023-01-08T00:53:42.685Z,99081.44
2023-01-08T00:54:24.381Z,99094.44
2023-01-08T00:55:07.128Z,99088.72
2023-01-08T00:55:49.660Z,99085.28
2023-01-08T00:56:31.514Z,99091.34
2023-01-08T00:57:13.280Z,99092.91
2023-01-08T00:57:55.966Z,99092.50
2023-01-08T00:58:39.088Z,99091.69
2023-01-08T00:59:20.837Z,99076.59
2023-01-08T01:00:06.096Z,99077.13
2023-01-08T01:00:50.960Z,99089.22
2023-01-08T01:01:35.949Z,98995.69
2023-01-08T01:02:20.214Z,99050.72
2023-01-08T01:03:04.401Z,99054.00
2023-01-08T01:03:47.540Z,99086.28
2023-01-08T01:04:31.375Z,99087.09
2023-01-08T01:05:17.272Z,99078.41
2023-01-08T01:06:07.103Z,99049.41
2023-01-08T01:06:48.869Z,99066.94
2023-01-08T01:07:32.609Z,99074.94
2023-01-08T01:08:17.762Z,99061.44
2023-01-08T01:09:33.711Z,99062.75
2023-01-08T04:42:50.609Z,98906.69
2023-01-08T04:43:32.354Z,98935.09
2023-01-08T04:44:13.915Z,98905.34
2023-01-08T04:44:55.635Z,98928.84
2023-01-08T04:45:37.323Z,98882.00
2023-01-08T04:46:18.973Z,98911.41
2023-01-08T04:47:00.779Z,98939.19
2023-01-08T04:47:42.453Z,98946.66
2023-01-08T04:48:24.090Z,98939.41
2023-01-08T04:49:05.804Z,98929.78
2023-01-08T04:49:47.452Z,98934.78
2023-01-08T04:50:29.099Z,98945.59
2023-01-08T04:51:10.790Z,98949.03
2023-01-08T04:51:52.454Z,98940.84
2023-01-08T04:52:34.035Z,98954.78
2023-01-08T04:53:15.630Z,98948.06
2023-01-08T04:53:57.541Z,98930.13
2023-01-08T04:54:39.156Z,98941.22
2023-01-08T04:55:20.940Z,98950.03
2023-01-08T04:56:05.223Z,98961.84
2023-01-08T04:56:50.529Z,98933.59
2023-01-08T04:57:32.925Z,98962.41
2023-01-08T04:58:14.584Z,98951.03
2023-01-08T04:58:56.199Z,98929.41
2023-01-08T04:59:37.855Z,98942.03
2023-01-08T05:00:19.521Z,98954.94
2023-01-08T05:01:01.534Z,98944.13
2023-01-08T05:01:43.348Z,98948.69
2023-01-08T05:02:25.115Z,98956.38
2023-01-08T05:03:06.867Z,98949.91
2023-01-08T05:03:52.521Z,98941.84
2023-01-08T05:04:34.220Z,98907.69
2023-01-08T05:05:15.979Z,98891.59
2023-01-08T05:06:00.851Z,98934.47
2023-01-08T05:06:42.440Z,98943.41
2023-01-08T05:07:24.016Z,98890.44
2023-01-08T05:08:05.764Z,98922.69
2023-01-08T05:08:47.501Z,98912.44
2023-01-08T05:09:29.100Z,98936.75
2023-01-08T05:10:10.787Z,98943.13
2023-01-08T05:10:52.399Z,98926.22
2023-01-08T05:11:35.507Z,98936.28
2023-01-08T05:12:17.225Z,98904.88
2023-01-08T05:13:01.882Z,98928.59
2023-01-08T05:13:43.665Z,98951.19
2023-01-08T05:14:25.331Z,98919.59
2023-01-08T05:15:07.552Z,98940.50
2023-01-08T05:15:49.244Z,98947.47
2023-01-08T05:16:32.153Z,98942.59
2023-01-08T05:17:13.888Z,98917.59
2023-01-08T05:17:59.923Z,98943.41
2023-01-08T05:18:41.616Z,98919.13
2023-01-08T05:19:23.301Z,98938.56
2023-01-08T05:20:05.289Z,98916.94
2023-01-08T05:20:46.975Z,98912.22
2023-01-08T05:21:28.629Z,98947.38
2023-01-08T05:22:10.329Z,98943.94
2023-01-08T05:22:52.095Z,98944.09
2023-01-08T05:23:34.320Z,98918.13
2023-01-08T05:24:16.090Z,98941.38
2023-01-08T05:24:57.714Z,98946.66
2023-01-08T05:25:39.314Z,98924.78
2023-01-08T05:26:21.016Z,98918.88
2023-01-08T05:27:02.606Z,98937.22
2023-01-08T05:27:44.199Z,98941.31
2023-01-08T05:28:26.411Z,98920.88
2023-01-08T05:29:08.113Z,98929.50
2023-01-08T05:29:51.003Z,98921.88
2023-01-08T05:30:32.642Z,98945.31
2023-01-08T05:31:14.729Z,98911.06
2023-01-08T05:31:56.398Z,98903.91
2023-01-08T05:32:38.023Z,98926.78
2023-01-08T05:33:20.180Z,98857.47
2023-01-08T05:34:01.940Z,98916.59
2023-01-08T05:34:44.251Z,98937.22
2023-01-08T05:35:25.903Z,98933.75
2023-01-08T05:36:08.742Z,98931.75
2023-01-08T05:36:50.413Z,98927.94
2023-01-08T05:37:34.528Z,98913.50
2023-01-08T05:38:16.213Z,98922.22
2023-01-08T05:38:58.170Z,98921.22
2023-01-08T05:39:39.780Z,98917.88
2023-01-08T05:40:21.435Z,98929.31
2023-01-08T05:41:03.422Z,98905.88
2023-01-08T05:41:45.080Z,98929.25
2023-01-08T05:42:26.803Z,98932.06
2023-01-08T05:43:08.483Z,98920.16
2023-01-08T05:43:50.208Z,98922.16
2023-01-08T05:44:31.832Z,98891.91
2023-01-08T05:45:15.588Z,98900.97
2023-01-08T05:46:01.686Z,98928.03
2023-01-08T05:46:43.421Z,98940.66
2023-01-08T05:47:25.103Z,98934.41
2023-01-08T05:48:07.636Z,98937.22
2023-01-08T05:48:49.279Z,98910.34
2023-01-08T05:49:30.907Z,98928.13
2023-01-08T05:50:12.646Z,98905.00
2023-01-08T05:50:54.293Z,98941.78
2023-01-08T05:51:38.681Z,98925.97
2023-01-08T05:52:20.365Z,98897.16
2023-01-08T05:53:02.123Z,98838.97
2023-01-08T05:53:43.750Z,98931.25
2023-01-08T05:54:25.409Z,98926.78
2023-01-08T05:55:07.312Z,98919.06
2023-01-08T05:55:48.976Z,98915.16
2023-01-08T05:56:30.663Z,98929.25
2023-01-08T05:57:12.330Z,98937.22
2023-01-08T05:57:54.032Z,98951.31
2023-01-08T05:58:35.708Z,98932.53
2023-01-08T05:59:17.345Z,98944.59
2023-01-08T05:59:58.974Z,98953.50
2023-01-08T06:00:40.598Z,98924.69
2023-01-08T06:01:22.620Z,98933.41
2023-01-08T06:02:04.239Z,98952.97
2023-01-08T06:02:47.519Z,98942.41
2023-01-08T06:03:29.215Z,98945.88
2023-01-08T06:04:10.855Z,98944.25
2023-01-08T06:04:52.634Z,98937.44
2023-01-08T06:05:34.306Z,98943.59
2023-01-08T06:06:16.712Z,98923.81
2023-01-08T06:06:58.373Z,98904.44
2023-01-08T06:07:39.991Z,98934.50
2023-01-08T06:08:21.656Z,98914.16
2023-01-08T06:09:03.564Z,98904.19
2023-01-08T06:09:45.184Z,98906.25
2023-01-08T06:10:27.339Z,98890.00
2023-01-08T06:11:11.071Z,98903.91
2023-01-08T06:11:53.128Z,98914.50
2023-01-08T06:12:34.885Z,98921.88
2023-01-08T06:13:16.583Z,98922.06
2023-01-08T06:13:58.237Z,98918.78
2023-01-08T06:14:39.854Z,98924.22
2023-01-08T06:15:21.562Z,98922.63
2023-01-08T06:16:03.462Z,98906.19
2023-01-08T06:16:45.844Z,98904.06
2023-01-08T06:17:27.446Z,98910.06
2023-01-08T06:18:09.051Z,98887.56
2023-01-08T06:18:50.884Z,98918.25
2023-01-08T06:19:32.512Z,98910.44
2023-01-08T06:20:14.093Z,98903.97
2023-01-08T06:20:56.117Z,98898.44
2023-01-08T06:21:38.271Z,98900.25
2023-01-08T06:22:19.924Z,98919.13
2023-01-08T06:23:01.519Z,98919.75
2023-01-08T06:23:43.200Z,98915.13
2023-01-08T06:24:24.868Z,98916.59
2023-01-08T06:25:06.742Z,98911.94
2023-01-08T06:25:53.838Z,98907.09
2023-01-08T06:26:35.505Z,98901.00
2023-01-08T06:27:17.134Z,98914.81
2023-01-08T06:27:58.796Z,98912.47
2023-01-08T06:28:40.445Z,98910.19
2023-01-08T06:29:22.049Z,98880.22
2023-01-08T06:30:04.640Z,98905.56
2023-01-08T06:30:46.334Z,98913.91
2023-01-08T06:31:28.074Z,98909.25
2023-01-08T06:32:09.741Z,98912.72
2023-01-08T06:32:58.406Z,98915.34
2023-01-08T06:33:40.158Z,98900.66
2023-01-08T06:34:21.846Z,98910.28
2023-01-08T06:35:03.814Z,98913.53
2023-01-08T06:35:45.445Z,98889.22
2023-01-08T06:36:27.354Z,98913.53
2023-01-08T06:37:08.954Z,98903.91
2023-01-08T06:37:50.802Z,98915.81
2023-01-08T06:38:34.359Z,98891.28
2023-01-08T06:39:16.022Z,98904.09
2023-01-08T06:39:57.595Z,98897.19
2023-01-08T06:40:39.227Z,98919.72
2023-01-08T06:41:20.855Z,98922.34
2023-01-08T06:42:02.556Z,98917.88
2023-01-08T06:42:44.594Z,98915.81
2023-01-08T06:43:26.265Z,98901.97
2023-01-08T06:44:08.184Z,98908.88
2023-01-08T06:44:49.822Z,98921.41
2023-01-08T06:45:32.576Z,98892.19
2023-01-08T06:46:14.764Z,98921.22
2023-01-08T06:46:59.722Z,98912.03
2023-01-08T06:47:41.430Z,98894.81
2023-01-08T06:48:23.031Z,98916.06
2023-01-08T06:49:04.632Z,98894.19
2023-01-08T06:49:46.306Z,98918.25
2023-01-08T06:50:28.964Z,98907.00
2023-01-08T06:51:10.628Z,98916.81
2023-01-08T06:51:52.324Z,98914.16
2023-01-08T06:52:33.976Z,98917.63
2023-01-08T06:53:15.635Z,98890.69
2023-01-08T06:53:57.288Z,98918.44
2023-01-08T06:54:39.000Z,98911.34
2023-01-08T06:55:21.711Z,98903.97
2023-01-08T06:56:04.379Z,98911.53
2023-01-08T06:56:53.782Z,98914.25
2023-01-08T06:57:35.825Z,98914.88
2023-01-08T06:58:17.407Z,98896.28
2023-01-08T06:58:59.059Z,98914.69
2023-01-08T06:59:40.706Z,98907.59
2023-01-08T07:00:26.302Z,98911.84
2023-01-08T07:01:13.768Z,98899.63
2023-01-08T07:01:55.519Z,98874.91
2023-01-08T07:02:37.390Z,98914.94
2023-01-08T07:03:19.755Z,98726.13
2023-01-08T07:04:01.396Z,98854.50
2023-01-08T07:04:43.159Z,98916.59
2023-01-08T07:05:24.796Z,98909.50
2023-01-08T07:06:06.818Z,98913.94
2023-01-08T07:06:48.664Z,98911.31
2023-01-08T07:07:30.353Z,98902.25
2023-01-08T07:08:14.829Z,98914.31
2023-01-08T07:08:56.873Z,98900.88
2023-01-08T07:09:38.475Z,98846.97
2023-01-08T07:10:20.363Z,98909.03
2023-01-08T07:11:06.472Z,98910.03
2023-01-08T07:11:48.117Z,98878.56
2023-01-08T07:12:29.747Z,98902.63
2023-01-08T07:13:12.796Z,98891.56
2023-01-08T07:13:55.758Z,98909.72
2023-01-08T07:14:37.452Z,98895.19
2023-01-08T07:15:19.104Z,98893.56
2023-01-08T07:16:13.145Z,98906.25
2023-01-08T07:16:54.735Z,98890.75
2023-01-08T07:17:37.170Z,98902.88
2023-01-08T07:18:18.801Z,98901.63
2023-01-08T07:19:00.533Z,98897.97
2023-01-08T07:19:43.645Z,98871.94
2023-01-08T07:20:25.237Z,98876.22
2023-01-08T07:21:07.853Z,98898.19
2023-01-08T07:21:49.445Z,98895.69
2023-01-08T07:22:31.224Z,98901.22
2023-01-08T07:23:12.876Z,98894.50
2023-01-08T07:23:54.556Z,98909.19
2023-01-08T07:24:36.207Z,98900.28
2023-01-08T07:25:17.933Z,98888.22
2023-01-08T07:26:02.720Z,98904.38
2023-01-08T07:26:44.395Z,98899.81
2023-01-08T07:27:26.357Z,98915.56
2023-01-08T07:28:12.652Z,98911.47
2023-01-08T07:28:54.288Z,98908.00
2023-01-08T07:29:35.893Z,98911.28
2023-01-08T07:30:28.741Z,98917.16
2023-01-08T07:31:10.885Z,98915.81
2023-01-08T07:31:52.719Z,98915.16
2023-01-08T07:32:34.339Z,98909.25
2023-01-08T07:33:15.941Z,98878.34
2023-01-08T07:33:57.524Z,98897.94
2023-01-08T07:34:39.162Z,98918.91
2023-01-08T07:35:20.831Z,98920.09
2023-01-08T07:36:02.911Z,98911.50
2023-01-08T07:36:44.680Z,98918.66
2023-01-08T07:37:26.614Z,98912.78
2023-01-08T07:38:08.229Z,98913.59
2023-01-08T07:38:50.187Z,98920.69
2023-01-08T07:39:32.183Z,98919.69
2023-01-08T07:40:13.861Z,98918.66
2023-01-08T07:40:57.643Z,98899.13
2023-01-08T07:41:39.267Z,98913.00
2023-01-08T07:42:20.920Z,98914.91
2023-01-08T07:43:04.353Z,98914.97
2023-01-08T07:43:48.146Z,98895.81
2023-01-08T07:44:29.717Z,98906.84
2023-01-08T07:45:11.609Z,98912.03
2023-01-08T07:45:53.254Z,98923.03
2023-01-08T07:46:34.997Z,98924.69
2023-01-08T07:47:16.688Z,98928.50
2023-01-08T07:47:58.982Z,98895.28
2023-01-08T07:48:40.792Z,98891.44
2023-01-08T07:49:22.410Z,98906.25
2023-01-08T07:50:04.355Z,98922.91
2023-01-08T07:50:46.067Z,98927.81
2023-01-08T07:51:27.824Z,98923.00
2023-01-08T07:52:09.496Z,98909.72
2023-01-08T07:52:51.183Z,98909.94
2023-01-08T07:53:33.329Z,98925.50
2023-01-08T07:54:14.983Z,98916.53
2023-01-08T07:54:56.559Z,98892.91
2023-01-08T07:55:38.563Z,98911.69
2023-01-08T07:56:20.193Z,98917.41
2023-01-08T07:57:01.790Z,98908.84
2023-01-08T07:57:43.420Z,98926.22
2023-01-08T07:58:25.115Z,98897.13
2023-01-08T07:59:06.699Z,98909.94
2023-01-08T07:59:48.453Z,98911.44
2023-01-08T08:00:30.095Z,98896.28
2023-01-08T08:01:12.323Z,98915.06
2023-01-08T08:01:54.195Z,98898.75
2023-01-08T08:02:36.074Z,98909.13
2023-01-08T08:03:17.808Z,98919.13
2023-01-08T08:03:59.442Z,98914.22
2023-01-08T08:04:41.033Z,98899.13
2023-01-08T08:05:22.742Z,98906.47
2023-01-08T08:06:04.589Z,98913.22
2023-01-08T08:06:46.235Z,98820.09
2023-01-08T08:07:30.881Z,98878.28
2023-01-08T08:08:13.497Z,98899.88
2023-01-08T08:08:57.308Z,98903.06
2023-01-08T08:09:39.189Z,98895.97
2023-01-08T08:10:20.835Z,98914.72
2023-01-08T08:11:03.183Z,98913.25
2023-01-08T08:11:44.814Z,98913.63
2023-01-08T08:12:26.471Z,98899.75
2023-01-08T08:13:08.467Z,98902.63
2023-01-08T08:13:52.423Z,98889.94
2023-01-08T08:14:36.002Z,98903.44
2023-01-08T08:15:17.710Z,98901.44
2023-01-08T08:16:04.078Z,98905.34
2023-01-08T08:16:45.849Z,98901.88
2023-01-08T08:17:27.516Z,98901.25
2023-01-08T08:18:09.635Z,98899.81
2023-01-08T08:18:51.241Z,98897.34
2023-01-08T08:19:32.805Z,98901.03
2023-01-08T08:20:15.066Z,98904.66
2023-01-08T08:20:58.018Z,98892.84
2023-01-08T08:21:39.755Z,98899.38
2023-01-08T08:22:21.427Z,98899.38
2023-01-08T08:23:05.183Z,98901.63
2023-01-08T08:23:46.746Z,98874.28
2023-01-08T08:24:28.348Z,98899.88
2023-01-08T08:25:10.065Z,98898.06
2023-01-08T08:25:52.164Z,98903.97
2023-01-08T08:26:33.828Z,98876.66
2023-01-08T08:27:15.414Z,98903.75
2023-01-08T08:27:58.911Z,98884.78
2023-01-08T08:28:40.584Z,98900.94
2023-01-08T08:29:22.193Z,98878.50
2023-01-08T08:30:06.047Z,98841.97
2023-01-08T08:30:47.760Z,98901.84
2023-01-08T08:31:29.542Z,98894.66
2023-01-08T08:32:11.189Z,98901.44
2023-01-08T08:32:53.734Z,98893.91
2023-01-08T08:33:35.312Z,98851.09
2023-01-08T08:34:16.906Z,98868.47
2023-01-08T08:34:58.567Z,98897.69
2023-01-08T08:35:40.950Z,98900.94
2023-01-08T08:36:28.442Z,98891.22
2023-01-08T08:37:10.056Z,98893.84
2023-01-08T08:37:51.729Z,98885.94
2023-01-08T08:38:33.615Z,98892.81
2023-01-08T08:39:15.371Z,98833.66
2023-01-08T08:39:56.917Z,98879.84
2023-01-08T08:40:38.502Z,98900.63
2023-01-08T08:41:20.133Z,98890.44
2023-01-08T08:42:01.717Z,98890.00
2023-01-08T08:42:43.303Z,98905.72
2023-01-08T08:43:24.884Z,98890.06
2023-01-08T08:44:06.509Z,98900.25
2023-01-08T08:44:48.152Z,98885.41
2023-01-08T08:45:29.903Z,98895.56
2023-01-08T08:46:11.651Z,98890.28
2023-01-08T08:46:53.347Z,98897.38
2023-01-08T08:47:35.067Z,98882.50
2023-01-08T08:48:16.854Z,98887.22
2023-01-08T08:48:58.475Z,98888.63
2023-01-08T08:49:40.216Z,98894.72
2023-01-08T08:50:22.210Z,98892.44
2023-01-08T08:51:04.443Z,98893.44
2023-01-08T08:51:46.140Z,98896.91
2023-01-08T08:52:29.376Z,98896.72
2023-01-08T08:53:11.106Z,98886.31
2023-01-08T08:53:52.840Z,98877.38
2023-01-08T08:54:34.476Z,98899.44
2023-01-08T08:55:17.462Z,98894.75
2023-01-08T08:55:59.302Z,98891.91
2023-01-08T08:56:40.925Z,98887.31
2023-01-08T08:57:27.044Z,98886.50
2023-01-08T08:58:11.721Z,98886.28
2023-01-08T08:58:53.330Z,98887.03
2023-01-08T08:59:35.249Z,98840.50
2023-01-08T09:00:17.101Z,98898.88
2023-01-08T09:01:03.751Z,98887.66
2023-01-08T09:01:45.612Z,98891.09
2023-01-08T09:02:27.447Z,98888.06
2023-01-08T09:03:13.716Z,98895.72
2023-01-08T09:03:55.383Z,98893.06
2023-01-08T09:04:37.018Z,98888.63
2023-01-08T09:05:18.666Z,98875.31
2023-01-08T09:06:00.511Z,98895.16
2023-01-08T09:06:44.238Z,98874.97
2023-01-08T09:07:25.921Z,98868.47
2023-01-08T09:08:07.656Z,98872.34
2023-01-08T09:08:49.355Z,98892.59
2023-01-08T09:09:31.069Z,98889.75
2023-01-08T09:10:12.872Z,98890.38
2023-01-08T09:10:54.581Z,98889.38
2023-01-08T09:11:36.360Z,98880.19
2023-01-08T09:12:18.040Z,98896.28
2023-01-08T09:12:59.689Z,98897.13
2023-01-08T09:13:41.289Z,98868.56
2023-01-08T09:14:22.992Z,98895.06
2023-01-08T09:15:05.378Z,98880.38
2023-01-08T09:15:47.136Z,98890.41
2023-01-08T09:16:28.848Z,98874.91
2023-01-08T09:17:10.532Z,98866.19
2023-01-08T09:17:56.599Z,98888.03
2023-01-08T09:18:38.228Z,98887.22
2023-01-08T09:19:19.932Z,98876.00
2023-01-08T09:20:05.337Z,98893.50
2023-01-08T09:20:48.103Z,98897.78
2023-01-08T09:21:29.696Z,98891.50
2023-01-08T09:22:11.321Z,98881.09
2023-01-08T09:22:52.999Z,98899.59
2023-01-08T09:23:35.580Z,98885.28
2023-01-08T09:24:17.283Z,98860.13
2023-01-08T09:24:58.936Z,98891.91
2023-01-08T09:25:40.533Z,98905.78
2023-01-08T09:26:22.141Z,98890.88
2023-01-08T09:27:03.737Z,98905.59
2023-01-08T09:27:45.648Z,98903.97
2023-01-08T09:28:27.306Z,98898.88
2023-01-08T09:29:09.022Z,98902.47
2023-01-08T09:29:50.656Z,98863.69
2023-01-08T09:30:33.171Z,98900.63
2023-01-08T09:31:14.843Z,98874.56
2023-01-08T09:31:57.422Z,98891.91
2023-01-08T09:32:39.300Z,98885.41
2023-01-08T09:33:20.977Z,98865.38
2023-01-08T09:34:02.602Z,98892.50
2023-01-08T09:34:44.250Z,98903.16
2023-01-08T09:35:26.138Z,98901.31
2023-01-08T09:36:14.022Z,98899.50
2023-01-08T09:36:55.689Z,98893.59
2023-01-08T09:37:37.387Z,98890.94
2023-01-08T09:38:19.077Z,98890.38
2023-01-08T09:39:01.306Z,98873.41
2023-01-08T09:39:48.029Z,98897.16
2023-01-08T09:40:37.960Z,98884.31
2023-01-08T09:41:33.622Z,98898.84
2023-01-08T09:42:16.386Z,98897.63
2023-01-08T09:43:01.401Z,98907.19
2023-01-08T09:43:46.915Z,98898.44
2023-01-08T09:44:35.137Z,98895.16
2023-01-08T09:45:33.241Z,98896.81
2023-01-08T09:46:15.723Z,98888.88
2023-01-08T09:46:58.332Z,98869.94
2023-01-08T09:47:43.364Z,98895.59
2023-01-08T09:48:31.188Z,98905.16
2023-01-08T09:49:21.023Z,98897.22
2023-01-08T09:50:06.932Z,98905.53
2023-01-08T09:50:49.123Z,98902.28
2023-01-08T09:51:38.304Z,98897.22
2023-01-08T09:52:20.349Z,98897.59
2023-01-08T09:53:02.465Z,98896.78
2023-01-08T09:53:45.039Z,98898.78
2023-01-08T09:54:27.344Z,98889.19
2023-01-08T09:55:16.515Z,98885.09
2023-01-08T09:56:10.212Z,98898.16
2023-01-08T09:56:52.817Z,98905.25
2023-01-08T09:57:34.511Z,98887.66
2023-01-08T09:58:28.593Z,98902.81
2023-01-08T09:59:16.634Z,98899.16
2023-01-08T09:59:58.623Z,98896.34
2023-01-08T10:00:40.308Z,98897.59
2023-01-08T10:01:25.245Z,98903.91
2023-01-08T10:02:15.346Z,98874.81
2023-01-08T10:02:58.169Z,98900.13
2023-01-08T10:03:44.172Z,98899.72
2023-01-08T10:04:27.044Z,98876.94
2023-01-08T10:05:15.300Z,98893.50
2023-01-08T10:05:57.018Z,98897.34
2023-01-08T10:06:40.603Z,98888.22
2023-01-08T10:07:24.647Z,98889.88
2023-01-08T10:08:06.377Z,98891.50
2023-01-08T10:08:50.399Z,98892.50
2023-01-08T10:09:33.178Z,98896.16
2023-01-08T10:10:25.290Z,98896.34
2023-01-08T10:11:09.029Z,98895.94
2023-01-08T10:11:53.463Z,98880.59
2023-01-08T10:12:35.174Z,98873.09
2023-01-08T10:13:16.802Z,98867.75
2023-01-08T10:13:58.497Z,98885.75
2023-01-08T10:14:47.891Z,98880.66
2023-01-08T10:15:29.620Z,98890.47
2023-01-08T10:16:21.950Z,98879.91
2023-01-08T10:17:30.877Z,98890.50
2023-01-08T10:18:14.215Z,98898.22
2023-01-08T10:18:56.707Z,98892.94
2023-01-08T10:19:38.649Z,98898.03
2023-01-08T10:20:23.353Z,98885.78
2023-01-08T10:21:05.514Z,98894.59
2023-01-08T10:21:47.201Z,98882.56
2023-01-08T10:22:33.794Z,98891.16
2023-01-08T10:23:18.173Z,98884.09
2023-01-08T10:23:59.864Z,98869.63
2023-01-08T10:24:41.494Z,98879.00
2023-01-08T10:25:28.252Z,98870.31
2023-01-08T10:26:09.891Z,98873.97
2023-01-08T10:26:53.122Z,98877.69
2023-01-08T10:27:50.359Z,98864.84
2023-01-08T10:28:37.895Z,98845.06
2023-01-08T10:29:19.562Z,98877.69
2023-01-08T10:30:06.804Z,98886.19
2023-01-08T10:30:50.086Z,98871.75
2023-01-08T10:31:32.451Z,98878.44
2023-01-08T10:32:19.063Z,98869.06
2023-01-08T10:33:06.247Z,98881.91
2023-01-08T10:33:49.391Z,98874.97
2023-01-08T10:34:39.612Z,98876.41
2023-01-08T10:35:28.918Z,98867.28
2023-01-08T10:36:14.376Z,98865.84
2023-01-08T10:36:56.680Z,98851.41
2023-01-08T10:37:42.302Z,98848.97
2023-01-08T10:38:28.320Z,98860.00
2023-01-08T10:39:21.627Z,98828.41
2023-01-08T10:40:37.660Z,98861.63
2023-01-08T10:41:19.754Z,98859.59
2023-01-08T10:42:06.571Z,98857.78
2023-01-08T10:42:49.124Z,98858.59
2023-01-08T10:43:37.549Z,98851.88
2023-01-08T10:44:22.454Z,98854.75
2023-01-08T10:45:07.793Z,98856.19
2023-01-08T10:46:00.425Z,98825.81
2023-01-08T10:46:48.249Z,98841.13
2023-01-08T10:47:33.880Z,98827.69
2023-01-08T10:48:18.341Z,98839.94
2023-01-08T10:49:02.411Z,98848.91
2023-01-08T10:49:45.426Z,98844.63
2023-01-08T10:50:32.827Z,98841.97
2023-01-08T10:51:33.269Z,98841.16
2023-01-08T10:52:32.760Z,98841.59
2023-01-08T10:53:26.235Z,98837.31
2023-01-08T10:54:41.461Z,98831.84
2023-01-08T10:55:23.072Z,98833.47
2023-01-08T10:56:05.364Z,98801.72
2023-01-08T10:56:47.015Z,98841.22
2023-01-08T10:57:30.805Z,98845.28
2023-01-08T10:58:15.142Z,98845.09
2023-01-08T10:58:57.482Z,98847.13
2023-01-08T10:59:42.270Z,98833.88
2023-01-08T11:00:32.634Z,98839.19
2023-01-08T11:01:32.869Z,98807.41
2023-01-08T11:02:40.241Z,98823.09
2023-01-08T11:03:32.711Z,98829.00
2023-01-08T11:04:35.411Z,98810.25
2023-01-08T11:05:17.430Z,98811.88
2023-01-08T11:05:59.305Z,98803.94
2023-01-08T11:06:47.116Z,98826.75
2023-01-08T11:07:30.051Z,98827.34
2023-01-08T11:08:17.890Z,98796.81
2023-01-08T11:09:01.942Z,98818.63
2023-01-08T11:09:48.573Z,98821.03
2023-01-08T11:10:30.351Z,98808.44
2023-01-08T11:11:12.242Z,98808.63
2023-01-08T11:11:57.489Z,98810.47
2023-01-08T11:12:41.045Z,98783.38
2023-01-08T11:13:23.684Z,98808.41
2023-01-08T11:14:14.793Z,98790.09
2023-01-08T11:14:56.980Z,98806.59
2023-01-08T11:15:41.224Z,98801.72
2023-01-08T11:16:30.339Z,98795.38
2023-01-08T11:17:12.893Z,98797.03
2023-01-08T11:17:54.601Z,98775.03
2023-01-08T11:18:47.797Z,98802.31
2023-01-08T11:19:32.145Z,98803.53
2023-01-08T11:20:29.554Z,98801.31
2023-01-08T11:21:20.692Z,98798.22
2023-01-08T11:22:17.869Z,98802.09
2023-01-08T11:23:16.463Z,98790.28
2023-01-08T11:24:23.647Z,98789.31
2023-01-08T11:25:14.066Z,98764.25
2023-01-08T11:26:10.157Z,98770.72
2023-01-08T11:27:01.252Z,98780.94
2023-01-08T11:27:45.393Z,98769.72
2023-01-08T11:28:38.400Z,98759.13
2023-01-08T11:29:30.959Z,98745.72
2023-01-08T11:30:23.323Z,98744.28
2023-01-08T11:31:19.196Z,98774.78
2023-01-08T11:32:27.971Z,98731.63
2023-01-08T11:33:16.831Z,98712.88
2023-01-08T11:34:07.688Z,98750.34
2023-01-08T11:35:04.721Z,98754.56
2023-01-08T11:35:53.103Z,98737.91
2023-01-08T11:36:43.914Z,98752.53
2023-01-08T11:37:33.584Z,98745.84
2023-01-08T11:38:15.694Z,98751.16
2023-01-08T11:38:57.282Z,98750.09
2023-01-08T11:39:39.179Z,98739.75
2023-01-08T11:41:10.107Z,98752.50
2023-01-08T11:42:10.094Z,98743.31
2023-01-08T11:43:19.323Z,98743.06
2023-01-08T11:44:23.741Z,98733.47
2023-01-08T11:45:42.597Z,98736.28
2023-01-08T11:46:56.420Z,98738.06
2023-01-08T11:48:03.838Z,98734.38
2023-01-08T11:49:16.349Z,98725.19
2023-01-08T11:50:03.358Z,98725.59
2023-01-08T11:51:15.310Z,98713.56
2023-01-08T11:51:59.557Z,98725.63
2023-01-08T11:52:48.546Z,98707.16
2023-01-08T11:53:42.720Z,98723.03
2023-01-08T11:54:37.843Z,98720.38
2023-01-08T11:55:45.526Z,98723.44
2023-01-08T11:56:30.301Z,98708.59
2023-01-08T11:57:44.436Z,98722.00
2023-01-08T11:58:46.306Z,98710.09
2023-01-08T12:00:02.991Z,98711.47
2023-01-08T12:01:11.319Z,98707.22
2023-01-08T12:02:30.439Z,98708.81
2023-01-08T12:03:42.224Z,98703.16
2023-01-08T12:04:46.712Z,98708.66
2023-01-08T12:05:36.509Z,98693.00
2023-01-08T12:06:41.895Z,98684.81
2023-01-08T12:07:29.420Z,98685.13
2023-01-08T12:08:19.716Z,98678.19
2023-01-08T12:09:18.945Z,98670.38
2023-01-08T12:10:34.406Z,98671.97
2023-01-08T12:11:15.989Z,98672.38
2023-01-08T12:12:15.128Z,98675.88
2023-01-08T12:13:03.236Z,98670.53
2023-01-08T12:13:50.618Z,98676.03
2023-01-08T12:15:07.427Z,98678.72